Ozone, Tennessee
Current Conditions -  °F | °C
As of 9:53 AM on Thursday 27 Nov 2014 (Local Time) from KCSV Reporting Station
Overcast Overcast  
Wind Chill: 27°   Ceiling: 1200
Heat Index: 34°   Visibility: 8mi
Dew Point: 29°   Wind: 9mph
Humidity: 82%   Direction: 310°NW
Pressure: 30.28"   Gusts: 17mph
Location:  35.88°N, 84.81°W
Report Text: KCSV 271553Z AUTO 31008G15KT 8SM BKN012 OVC017 01/M02 A3028 RMK AO2 SLP263 T00111017
Loading
Personal Weather Stations






























Interactive Weather Map New forecast layout! Learn more

10-Day Weather Forecast

Advertisements
Track Severe Weather on mobile